Portada
METAR-TAF:

METAR-TAF

Aeroports :

Oral, Kazakhstan

latitud: 51-15N, longitud: 051-17E, altitud: 36 m

Observació

L'informe es va fer fa 30 minuts, a les 12:00 UTC
Vent 6 kt del Sud/Sud-Oest, variant entre Sud/Sud-Est i Oest
Temperatura 35°C
Humitat 20%
Pressió 1015 hPa
Visibilitat 10 km o més
sense núvols per sota de 1500 mi sense presència de cumulonimbus.

METAR: UARR 041200Z 21003MPS 150V270 CAVOK 35/09 Q1015 R22/CLRD70 NOSIG RMK QFE758/1011

Hora: 17:30 (12:30 UTC)

Pronòstic

L'informe es va fer fa 1 hora i 30 minuts, a les 11:00 UTC
Pronòstic vàlid del 04 a les 12 UTC al 04 a les 21 UTC
Vent 4 kt amb direcció variable
Visibilitat 10 km o més
Núvols disperses a una alçada de 4000 ft
Temporalment
l' 04 a les 12 UTC al 04 a les 15 UTC
Vent 8 kt del Oest/Nord-Oest amb ràfegues de 19 kt
Núvols disperses a una alçada de 5000 ft, Cumulonimbus.

TAF: UARR 041100Z 0412/0421 VRB02MPS 9999 SCT040 TEMPO 0412/0415 30004G10MPS SCT050CB

Observacions i pronòstics meteorològics de més de 4000 aeroports (METAR i TAF).

Les estacions disponibles són els punts grocs i vermells al mapa.

Posi el ratolí al punt desitjat per veure el nom de l'estació.

Feu clic per veure les observacions i els pronòstics meteorològics.

Per canviar el mapa: feu clic els botons verds amb una creu de color negre per apropar; al botó verd amb un guió per allunyar la imatge; o en les fletxes verdes per a mapes adjacents.


METAR-TAF: